createdAt,value
2022-12-18T00:01:38.958Z,102492.06
2022-12-18T00:04:09.135Z,102487.81
2022-12-18T00:06:38.947Z,102482.78
2022-12-18T00:09:09.355Z,102485.38
2022-12-18T00:11:39.972Z,102482.75
2022-12-18T00:14:09.758Z,102481.06
2022-12-18T00:16:38.040Z,102493.78
2022-12-18T00:19:05.987Z,102480.22
2022-12-18T00:21:34.052Z,102485.25
2022-12-18T00:24:01.335Z,102487.00
2022-12-18T00:26:32.898Z,102481.88
2022-12-18T00:29:04.124Z,102470.88
2022-12-18T00:31:33.398Z,102469.19
2022-12-18T00:34:00.582Z,102476.00
2022-12-18T00:36:32.071Z,102471.78
2022-12-18T00:39:02.317Z,102476.84
2022-12-18T00:41:55.041Z,102473.47
2022-12-18T00:44:22.026Z,102465.81
2022-12-18T00:46:49.777Z,102475.19
2022-12-18T00:49:21.886Z,102473.47
2022-12-18T00:51:53.200Z,102476.88
2022-12-18T00:54:20.172Z,102470.97
2022-12-18T00:56:54.026Z,102465.00
2022-12-18T00:59:21.056Z,102455.69
2022-12-18T01:01:52.007Z,102464.19
2022-12-18T01:04:22.628Z,102459.03
2022-12-18T01:06:49.617Z,102459.94
2022-12-18T01:09:19.265Z,102470.97
2022-12-18T01:11:46.173Z,102465.06
2022-12-18T01:14:13.094Z,102460.81
2022-12-18T01:16:40.080Z,102454.03
2022-12-18T01:19:07.329Z,102459.13
2022-12-18T01:21:37.692Z,102457.44
2022-12-18T01:24:05.808Z,102463.41
2022-12-18T01:26:32.839Z,102454.91
2022-12-18T01:29:00.086Z,102466.75
2022-12-18T01:31:36.591Z,102478.63
2022-12-18T01:34:05.819Z,102470.13
2022-12-18T01:36:37.706Z,102470.97
2022-12-18T01:39:14.386Z,102467.50
2022-12-18T01:42:03.390Z,102467.50
2022-12-18T01:44:55.065Z,102475.16
2022-12-18T01:47:44.750Z,102471.84
2022-12-18T01:50:59.200Z,102479.47
2022-12-18T01:53:29.074Z,102478.59
2022-12-18T01:56:00.368Z,102470.09
2022-12-18T01:58:56.207Z,102473.50
2022-12-18T02:01:27.750Z,102474.28
2022-12-18T02:03:54.859Z,102465.78
2022-12-18T02:06:41.341Z,102471.78
2022-12-18T02:09:29.895Z,102476.06
2022-12-18T02:12:24.714Z,102464.19
2022-12-18T02:15:47.248Z,102451.44
2022-12-18T02:18:31.807Z,102447.19
2022-12-18T02:21:36.258Z,102442.16
2022-12-18T02:24:39.994Z,102442.13
2022-12-18T02:27:09.500Z,102428.53
2022-12-18T02:29:57.884Z,102419.25
2022-12-18T02:32:33.880Z,102420.09
2022-12-18T02:35:03.721Z,102416.69
2022-12-18T02:37:33.394Z,102407.38
2022-12-18T02:40:04.205Z,102402.28
2022-12-18T02:42:35.109Z,102404.84
2022-12-18T02:45:02.068Z,102399.75
2022-12-18T02:47:40.032Z,102389.56
2022-12-18T02:50:23.902Z,102400.59
2022-12-18T02:53:15.951Z,102401.41
2022-12-18T02:56:22.738Z,102405.66
2022-12-18T02:59:01.665Z,102413.22
2022-12-18T03:02:25.099Z,102409.03
2022-12-18T03:05:12.196Z,102399.72
2022-12-18T03:08:16.921Z,102403.09
2022-12-18T03:11:12.488Z,102403.91
2022-12-18T03:13:57.664Z,102390.34
2022-12-18T03:16:29.872Z,102387.81
2022-12-18T03:19:02.812Z,102387.75
2022-12-18T03:21:38.453Z,102392.91
2022-12-18T03:24:09.398Z,102398.00
2022-12-18T03:26:44.440Z,102403.97
2022-12-18T03:29:21.940Z,102408.22
2022-12-18T03:32:09.219Z,102402.31
2022-12-18T03:34:39.394Z,102402.34
2022-12-18T03:37:08.958Z,102411.66
2022-12-18T03:39:39.668Z,102410.81
2022-12-18T03:42:19.745Z,102413.34
2022-12-18T03:44:55.802Z,102413.34
2022-12-18T03:47:46.091Z,102413.34
2022-12-18T03:50:58.650Z,102418.44
2022-12-18T03:53:40.386Z,102416.75
2022-12-18T03:56:11.175Z,102408.25
2022-12-18T03:58:47.067Z,102410.81
2022-12-18T04:01:17.840Z,102411.66
2022-12-18T04:03:48.000Z,102421.84
2022-12-18T04:06:18.310Z,102404.03
2022-12-18T04:08:46.233Z,102402.31
2022-12-18T04:11:13.199Z,102399.75
2022-12-18T04:13:43.523Z,102379.41
2022-12-18T04:16:14.126Z,102395.53
2022-12-18T04:18:41.136Z,102378.56
2022-12-18T04:21:08.177Z,102387.03
2022-12-18T04:23:35.193Z,102384.50
2022-12-18T04:26:02.134Z,102372.59
2022-12-18T04:28:29.057Z,102387.00
2022-12-18T04:30:58.266Z,102380.25
2022-12-18T04:33:25.251Z,102387.88
2022-12-18T04:35:52.193Z,102381.03
2022-12-18T04:38:20.757Z,102386.97
2022-12-18T04:40:47.705Z,102398.00
2022-12-18T04:43:14.691Z,102385.25
2022-12-18T04:45:41.683Z,102388.69
2022-12-18T04:48:08.660Z,102380.22
2022-12-18T04:50:39.861Z,102375.97
2022-12-18T04:53:10.155Z,102381.06
2022-12-18T04:55:40.532Z,102378.53
2022-12-18T04:58:10.877Z,102381.88
2022-12-18T05:00:38.278Z,102379.31
2022-12-18T05:03:07.165Z,102391.19
2022-12-18T05:05:36.760Z,102386.13
2022-12-18T05:08:03.859Z,102384.44
2022-12-18T05:10:37.558Z,102375.97
2022-12-18T05:13:11.168Z,102387.06
2022-12-18T05:15:38.672Z,102396.38
2022-12-18T05:18:05.927Z,102395.53
2022-12-18T05:20:37.109Z,102384.50
2022-12-18T05:23:04.088Z,102390.44
2022-12-18T05:25:31.046Z,102395.53
2022-12-18T05:27:58.112Z,102398.09
2022-12-18T05:30:25.735Z,102403.19
2022-12-18T05:32:56.627Z,102404.00
2022-12-18T05:35:25.330Z,102407.41
2022-12-18T05:37:52.289Z,102423.53
2022-12-18T05:40:19.370Z,102417.56
2022-12-18T05:42:50.346Z,102418.41
2022-12-18T05:45:17.411Z,102409.94
2022-12-18T05:47:44.304Z,102398.06
2022-12-18T05:50:11.212Z,102397.25
2022-12-18T05:52:38.675Z,102395.53
2022-12-18T05:55:05.933Z,102383.66
2022-12-18T05:57:33.088Z,102389.59
2022-12-18T06:00:05.828Z,102374.34
2022-12-18T06:02:32.923Z,102370.09
2022-12-18T06:05:06.060Z,102370.97
2022-12-18T06:07:33.264Z,102376.06
2022-12-18T06:10:00.181Z,102369.25
2022-12-18T06:12:27.296Z,102381.13
2022-12-18T06:14:56.479Z,102355.69
2022-12-18T06:17:25.345Z,102353.13
2022-12-18T06:19:56.533Z,102339.59
2022-12-18T06:22:23.734Z,102354.88
2022-12-18T06:24:50.883Z,102347.22
2022-12-18T06:27:18.028Z,102355.69
2022-12-18T06:29:47.423Z,102345.50
2022-12-18T06:32:17.254Z,102345.50
2022-12-18T06:34:44.253Z,102348.88
2022-12-18T06:37:11.160Z,102333.63
2022-12-18T06:39:38.175Z,102346.31
2022-12-18T06:42:05.392Z,102344.63
2022-12-18T06:44:32.477Z,102341.22
2022-12-18T06:46:59.391Z,102324.25
2022-12-18T06:49:30.466Z,102320.81
2022-12-18T06:51:57.808Z,102321.66
2022-12-18T06:54:24.705Z,102328.44
2022-12-18T06:56:53.729Z,102320.78
2022-12-18T06:59:24.061Z,102308.91
2022-12-18T07:01:51.112Z,102311.41
2022-12-18T07:04:28.575Z,102316.50
2022-12-18T07:06:55.488Z,102301.22
2022-12-18T07:09:23.049Z,102305.44
2022-12-18T07:11:49.963Z,102293.59
2022-12-18T07:14:16.868Z,102274.09
2022-12-18T07:16:43.860Z,102265.66
2022-12-18T07:19:10.890Z,102263.97
2022-12-18T07:21:37.969Z,102250.38
2022-12-18T07:24:05.615Z,102260.56
2022-12-18T07:26:32.596Z,102254.66
2022-12-18T07:28:59.747Z,102248.66
2022-12-18T07:31:27.996Z,102255.31
2022-12-18T07:33:56.243Z,102257.81
2022-12-18T07:36:23.460Z,102251.75
2022-12-18T07:38:52.539Z,102256.00
2022-12-18T07:41:19.879Z,102250.06
2022-12-18T07:43:47.209Z,102263.53
2022-12-18T07:46:15.953Z,102260.97
2022-12-18T07:48:45.223Z,102269.31
2022-12-18T07:51:16.817Z,102271.66
2022-12-18T07:53:44.366Z,102279.25
2022-12-18T07:56:30.366Z,102278.22
2022-12-18T07:58:59.406Z,102276.53
2022-12-18T08:01:26.795Z,102290.81
2022-12-18T08:03:53.970Z,102283.13
2022-12-18T08:06:23.797Z,102288.91
2022-12-18T08:08:56.506Z,102292.09
2022-12-18T08:11:26.408Z,102296.03
2022-12-18T08:13:54.021Z,102295.81
2022-12-18T08:16:22.060Z,102289.47
2022-12-18T08:18:49.646Z,102307.66
2022-12-18T08:21:24.824Z,102304.50
2022-12-18T08:23:54.175Z,102301.72
2022-12-18T08:26:21.822Z,102302.16
2022-12-18T08:28:50.899Z,102297.63
2022-12-18T08:31:19.453Z,102292.31
2022-12-18T08:33:46.932Z,102286.19
2022-12-18T08:36:13.960Z,102269.97
2022-12-18T08:38:41.038Z,102288.25
2022-12-18T08:41:13.786Z,102282.91
2022-12-18T08:44:00.065Z,102279.56
2022-12-18T08:46:32.242Z,102270.03
2022-12-18T08:48:59.303Z,102270.59
2022-12-18T08:51:26.249Z,102251.84
2022-12-18T08:53:53.143Z,102253.72
2022-12-18T08:56:20.234Z,102239.72
2022-12-18T08:58:47.541Z,102255.94
2022-12-18T09:01:14.836Z,102253.97
2022-12-18T09:03:42.281Z,102255.72
2022-12-18T09:06:10.186Z,102263.91
2022-12-18T09:08:38.199Z,102267.53
2022-12-18T09:11:05.579Z,102276.34
2022-12-18T09:13:32.706Z,102269.66
2022-12-18T09:15:59.666Z,102271.41
2022-12-18T09:18:26.598Z,102272.75
2022-12-18T09:20:53.937Z,102262.94
2022-12-18T09:23:22.035Z,102261.91
2022-12-18T09:25:49.370Z,102272.78
2022-12-18T09:28:19.131Z,102268.13
2022-12-18T09:30:50.485Z,102255.69
2022-12-18T09:33:18.173Z,102247.78
2022-12-18T09:35:46.575Z,102254.97
2022-12-18T09:38:18.844Z,102243.47
2022-12-18T09:40:54.177Z,102246.22
2022-12-18T09:43:50.692Z,102247.63
2022-12-18T09:46:27.998Z,102232.94
2022-12-18T09:49:01.373Z,102224.78
2022-12-18T09:51:41.302Z,102223.06
2022-12-18T09:54:17.734Z,102225.13
2022-12-18T09:56:45.176Z,102222.19
2022-12-18T09:59:28.053Z,102224.66
2022-12-18T10:01:55.634Z,102202.66
2022-12-18T10:04:22.611Z,102216.78
2022-12-18T10:07:08.888Z,102211.06
2022-12-18T10:10:05.416Z,102205.53
2022-12-18T10:12:41.082Z,102202.91
2022-12-18T10:15:28.948Z,102190.50
2022-12-18T10:18:02.927Z,102194.66
2022-12-18T10:20:45.485Z,102193.94
2022-12-18T10:23:45.074Z,102191.78
2022-12-18T10:26:15.079Z,102194.41
2022-12-18T10:28:43.548Z,102192.66
2022-12-18T10:31:19.644Z,102183.28
2022-12-18T10:33:47.134Z,102181.94
2022-12-18T10:36:14.352Z,102194.75
2022-12-18T10:38:42.553Z,102173.06
2022-12-18T10:41:19.574Z,102184.75
2022-12-18T10:43:49.071Z,102202.91
2022-12-18T10:46:21.130Z,102196.31
2022-12-18T10:48:48.026Z,102205.38
2022-12-18T10:51:23.563Z,102208.25
2022-12-18T10:54:19.239Z,102197.31
2022-12-18T10:56:47.080Z,102194.22
2022-12-18T10:59:17.256Z,102191.94
2022-12-18T11:01:55.890Z,102202.31
2022-12-18T11:04:27.048Z,102173.34
2022-12-18T11:07:02.385Z,102174.81
2022-12-18T11:09:37.845Z,102153.91
2022-12-18T11:12:20.262Z,102152.94
2022-12-18T11:14:51.091Z,102142.03
2022-12-18T11:17:27.051Z,102136.03
2022-12-18T11:20:32.641Z,102150.50
2022-12-18T11:23:13.283Z,102129.31
2022-12-18T11:25:40.712Z,102136.28
2022-12-18T11:28:36.794Z,102130.06
2022-12-18T11:31:33.713Z,102130.78
2022-12-18T11:34:34.283Z,102137.56
2022-12-18T11:37:04.339Z,102125.25
2022-12-18T11:39:43.004Z,102126.59
2022-12-18T11:42:41.569Z,102133.16
2022-12-18T11:45:14.592Z,102135.78
2022-12-18T11:47:58.997Z,102128.97
2022-12-18T11:50:59.450Z,102117.75
2022-12-18T11:53:28.355Z,102120.63
2022-12-18T11:56:07.069Z,102121.16
2022-12-18T11:58:52.143Z,102114.78
2022-12-18T12:01:57.929Z,102102.72
2022-12-18T12:05:02.895Z,102103.53
2022-12-18T12:07:48.326Z,102109.66
2022-12-18T12:10:56.887Z,102111.47
2022-12-18T12:14:00.215Z,102089.09
2022-12-18T12:16:50.491Z,102087.16
2022-12-18T12:20:00.173Z,102084.94
2022-12-18T12:22:50.761Z,102083.38
2022-12-18T12:26:03.380Z,102082.44
2022-12-18T12:28:36.058Z,102073.53
2022-12-18T12:31:22.268Z,102071.38
2022-12-18T12:33:55.146Z,102065.47
2022-12-18T12:36:47.162Z,102079.28
2022-12-18T12:39:22.924Z,102096.59
2022-12-18T12:42:08.752Z,102086.09
2022-12-18T12:44:55.640Z,102095.41
2022-12-18T12:47:38.625Z,102091.50
2022-12-18T12:50:15.486Z,102086.44
2022-12-18T12:52:55.960Z,102077.00
2022-12-18T12:55:28.032Z,102085.78
2022-12-18T12:58:21.453Z,102087.69
2022-12-18T13:01:08.719Z,102073.97
2022-12-18T13:04:34.037Z,102069.84
2022-12-18T13:07:20.039Z,102067.44
2022-12-18T13:10:13.528Z,102061.84
2022-12-18T13:13:11.000Z,102060.00
2022-12-18T13:15:51.353Z,102073.56
2022-12-18T13:18:24.599Z,102073.41
2022-12-18T13:21:03.219Z,102055.97
2022-12-18T13:23:39.844Z,102059.94
2022-12-18T13:26:07.713Z,102034.44
2022-12-18T13:28:47.097Z,102042.03
2022-12-18T13:31:34.724Z,102059.63
2022-12-18T13:34:34.136Z,102031.13
2022-12-18T13:37:33.396Z,102039.63
2022-12-18T13:40:00.348Z,102036.84
2022-12-18T13:42:59.191Z,102029.19
2022-12-18T13:46:22.950Z,102028.56
2022-12-18T13:49:05.524Z,102023.25
2022-12-18T13:51:35.165Z,102011.28
2022-12-18T13:54:13.529Z,101997.06
2022-12-18T13:56:47.029Z,101982.47
2022-12-18T13:59:28.049Z,101989.34
2022-12-18T14:02:00.031Z,101986.13
2022-12-18T14:04:35.685Z,101978.50
2022-12-18T14:07:16.738Z,101980.91
2022-12-18T14:09:49.928Z,101971.50
2022-12-18T14:12:43.992Z,101962.22
2022-12-18T14:15:27.701Z,101961.19
2022-12-18T14:18:25.858Z,101969.94
2022-12-18T14:21:02.623Z,101953.75
2022-12-18T14:23:35.681Z,101939.75
2022-12-18T14:26:20.295Z,101939.63
2022-12-18T14:28:47.676Z,101944.53
2022-12-18T14:31:26.371Z,101938.84
2022-12-18T14:33:57.059Z,101935.25
2022-12-18T14:36:30.309Z,101941.31
2022-12-18T14:39:02.222Z,101933.75
2022-12-18T14:41:29.789Z,101938.91
2022-12-18T14:44:06.665Z,101926.97
2022-12-18T14:46:36.580Z,101921.78
2022-12-18T14:49:30.197Z,101920.50
2022-12-18T14:52:06.339Z,101924.00
2022-12-18T14:54:38.027Z,101909.38
2022-12-18T14:57:33.447Z,101923.72
2022-12-18T15:00:12.271Z,101913.56
2022-12-18T15:02:42.281Z,101910.34
2022-12-18T15:05:32.607Z,101905.47
2022-12-18T15:08:03.068Z,101905.72
2022-12-18T15:10:33.657Z,101911.41
2022-12-18T15:13:01.510Z,101912.84
2022-12-18T15:15:34.731Z,101914.63
2022-12-18T15:18:12.701Z,101906.50
2022-12-18T15:20:58.291Z,101915.63
2022-12-18T15:23:37.154Z,101915.97
2022-12-18T15:26:09.970Z,101909.91
2022-12-18T15:29:04.021Z,101909.13
2022-12-18T15:31:37.636Z,101891.44
2022-12-18T15:34:21.950Z,101901.63
2022-12-18T15:36:49.005Z,101895.94
2022-12-18T15:39:15.938Z,101902.19
2022-12-18T15:42:03.171Z,101901.53
2022-12-18T15:44:30.195Z,101886.72
2022-12-18T15:46:57.905Z,101884.63
2022-12-18T15:49:24.891Z,101891.97
2022-12-18T15:51:56.270Z,101895.94
2022-12-18T15:54:43.464Z,101898.69
2022-12-18T15:57:26.426Z,101902.34
2022-12-18T15:59:57.482Z,101894.25
2022-12-18T16:02:25.494Z,101895.97
2022-12-18T16:04:53.399Z,101889.38
2022-12-18T16:07:25.499Z,101881.03
2022-12-18T16:09:53.664Z,101889.31
2022-12-18T16:12:26.016Z,101886.19
2022-12-18T16:14:53.282Z,101874.13
2022-12-18T16:17:20.625Z,101882.84
2022-12-18T16:19:47.607Z,101877.72
2022-12-18T16:22:30.185Z,101874.97
2022-12-18T16:24:58.739Z,101871.59
2022-12-18T16:27:26.271Z,101867.84
2022-12-18T16:29:53.257Z,101865.03
2022-12-18T16:32:22.491Z,101861.31
2022-12-18T16:34:50.494Z,101855.09
2022-12-18T16:37:17.809Z,101851.66
2022-12-18T16:39:45.163Z,101837.94
2022-12-18T16:42:20.371Z,101845.47
2022-12-18T16:44:50.045Z,101851.28
2022-12-18T16:47:18.171Z,101843.81
2022-12-18T16:49:46.179Z,101825.88
2022-12-18T16:52:13.883Z,101833.94
2022-12-18T16:54:40.951Z,101839.19
2022-12-18T16:57:09.359Z,101837.63
2022-12-18T16:59:36.520Z,101844.13
2022-12-18T17:02:03.574Z,101850.91
2022-12-18T17:04:30.633Z,101846.88
2022-12-18T17:06:57.676Z,101841.06
2022-12-18T17:09:27.664Z,101834.22
2022-12-18T17:11:55.048Z,101825.88
2022-12-18T17:14:24.562Z,101833.09
2022-12-18T17:17:19.919Z,101826.22
2022-12-18T17:19:42.042Z,101840.44
2022-12-18T17:22:09.597Z,101833.00
2022-12-18T17:24:36.764Z,101843.09
2022-12-18T17:27:04.985Z,101841.03
2022-12-18T17:29:32.072Z,101850.13
2022-12-18T17:32:00.374Z,101842.72
2022-12-18T17:34:28.373Z,101849.81
2022-12-18T17:36:56.835Z,101853.22
2022-12-18T17:39:24.049Z,101839.59
2022-12-18T17:41:51.010Z,101838.19
2022-12-18T17:44:18.952Z,101839.69
2022-12-18T17:46:46.752Z,101824.44
2022-12-18T17:49:14.605Z,101835.03
2022-12-18T17:51:45.170Z,101823.44
2022-12-18T17:54:12.164Z,101831.06
2022-12-18T17:56:40.038Z,101825.63
2022-12-18T17:59:07.329Z,101829.50
2022-12-18T18:01:38.487Z,101816.28
2022-12-18T18:04:08.219Z,101817.13
2022-12-18T18:06:36.953Z,101847.34
2022-12-18T18:09:15.901Z,101839.50
2022-12-18T18:12:03.778Z,101824.47
2022-12-18T18:14:31.093Z,101841.38
2022-12-18T18:17:01.130Z,101846.03
2022-12-18T18:19:32.431Z,101847.78
2022-12-18T18:21:59.474Z,101840.59
2022-12-18T18:24:26.675Z,101843.16
2022-12-18T18:26:56.585Z,101836.44
2022-12-18T18:29:26.703Z,101836.94
2022-12-18T18:31:55.069Z,101844.09
2022-12-18T18:34:25.564Z,101837.78
2022-12-18T18:36:53.010Z,101846.47
2022-12-18T18:39:20.503Z,101840.31
2022-12-18T18:41:48.749Z,101846.47
2022-12-18T18:44:18.027Z,101856.53
2022-12-18T18:46:45.484Z,101858.22
2022-12-18T18:49:13.889Z,101855.22
2022-12-18T18:51:42.263Z,101851.31
2022-12-18T18:54:10.362Z,101848.25
2022-12-18T18:59:31.766Z,101848.31
2022-12-18T19:02:00.758Z,101836.59
2022-12-18T19:04:34.024Z,101844.19
2022-12-18T19:07:01.271Z,101830.75
2022-12-18T19:09:28.822Z,101824.25
2022-12-18T19:12:14.366Z,101823.91
2022-12-18T19:14:41.376Z,101814.34
2022-12-18T19:17:08.506Z,101813.84
2022-12-18T19:19:35.633Z,101808.38
2022-12-18T19:22:02.930Z,101816.91
2022-12-18T19:24:30.077Z,101808.03
2022-12-18T19:26:58.218Z,101815.16
2022-12-18T19:29:25.496Z,101806.63
2022-12-18T19:31:52.678Z,101788.69
2022-12-18T19:34:20.058Z,101801.63
2022-12-18T19:36:47.164Z,101798.22
2022-12-18T19:39:17.959Z,101796.88
2022-12-18T19:41:47.324Z,101796.19
2022-12-18T19:44:16.470Z,101796.25
2022-12-18T19:46:46.201Z,101775.22
2022-12-18T19:49:18.093Z,101785.22
2022-12-18T19:51:45.812Z,101781.16
2022-12-18T19:54:16.929Z,101788.38
2022-12-18T19:56:45.468Z,101780.09
2022-12-18T19:59:13.114Z,101779.75
2022-12-18T20:01:40.428Z,101764.09
2022-12-18T20:04:07.804Z,101765.88
2022-12-18T20:06:52.055Z,101755.16
2022-12-18T20:09:21.056Z,101754.00
2022-12-18T20:11:48.817Z,101747.28
2022-12-18T20:14:22.788Z,101748.06
2022-12-18T20:16:52.313Z,101757.00
2022-12-18T20:19:20.053Z,101730.81
2022-12-18T20:21:47.617Z,101718.56
2022-12-18T20:24:14.595Z,101725.44
2022-12-18T20:26:41.954Z,101719.75
2022-12-18T20:29:08.910Z,101711.53
2022-12-18T20:31:35.901Z,101715.25
2022-12-18T20:34:04.982Z,101711.00
2022-12-18T20:36:35.240Z,101708.34
2022-12-18T20:39:06.506Z,101705.09
2022-12-18T20:41:38.277Z,101683.28
2022-12-18T20:44:18.999Z,101679.25
2022-12-18T20:46:56.475Z,101696.69
2022-12-18T20:49:26.524Z,101681.47
2022-12-18T20:51:56.636Z,101677.94
2022-12-18T20:54:26.267Z,101680.09
2022-12-18T20:56:53.212Z,101667.50
2022-12-18T20:59:20.388Z,101676.13
2022-12-18T21:01:48.991Z,101676.94
2022-12-18T21:04:18.591Z,101668.56
2022-12-18T21:06:53.073Z,101672.06
2022-12-18T21:09:23.368Z,101665.88
2022-12-18T21:12:10.300Z,101664.28
2022-12-18T21:14:41.011Z,101647.69
2022-12-18T21:17:08.173Z,101652.28
2022-12-18T21:19:35.148Z,101628.66
2022-12-18T21:22:03.497Z,101627.06
2022-12-18T21:24:32.561Z,101629.16
2022-12-18T21:27:00.004Z,101629.56
2022-12-18T21:29:27.228Z,101609.66
2022-12-18T21:31:54.859Z,101600.53
2022-12-18T21:34:26.375Z,101594.69
2022-12-18T21:36:55.139Z,101591.69
2022-12-18T21:39:22.538Z,101595.69
2022-12-18T21:42:09.491Z,101587.53
2022-12-18T21:44:42.183Z,101573.66
2022-12-18T21:47:22.163Z,101566.72
2022-12-18T21:49:52.090Z,101568.34
2022-12-18T21:52:19.745Z,101576.75
2022-12-18T21:54:48.572Z,101573.31
2022-12-18T21:57:15.589Z,101564.09
2022-12-18T21:59:45.702Z,101565.81
2022-12-18T22:02:17.435Z,101568.28
2022-12-18T22:04:46.887Z,101577.63
2022-12-18T22:07:15.483Z,101568.53
2022-12-18T22:09:42.991Z,101559.53
2022-12-18T22:12:13.015Z,101552.53
2022-12-18T22:14:39.988Z,101555.22
2022-12-18T22:17:07.125Z,101527.03
2022-12-18T22:19:42.633Z,101524.75
2022-12-18T22:22:10.057Z,101524.97
2022-12-18T22:24:37.000Z,101506.19
2022-12-18T22:27:04.696Z,101498.97
2022-12-18T22:29:53.758Z,101514.56
2022-12-18T22:32:30.856Z,101508.50
2022-12-18T22:35:05.220Z,101519.69
2022-12-18T22:37:34.262Z,101504.13
2022-12-18T22:40:03.248Z,101512.00
2022-12-18T22:42:31.372Z,101506.00
2022-12-18T22:44:58.362Z,101520.75
2022-12-18T22:47:29.395Z,101477.84
2022-12-18T22:49:57.958Z,101507.78
2022-12-18T22:52:25.389Z,101501.22
2022-12-18T22:54:54.059Z,101497.28
2022-12-18T22:57:23.206Z,101521.78
2022-12-18T22:59:51.580Z,101488.63
2022-12-18T23:02:21.766Z,101500.34
2022-12-18T23:04:48.949Z,101489.41
2022-12-18T23:07:16.824Z,101494.16
2022-12-18T23:09:44.315Z,101482.47
2022-12-18T23:12:18.598Z,101499.97
2022-12-18T23:14:47.250Z,101479.06
2022-12-18T23:17:14.279Z,101488.16
2022-12-18T23:19:47.167Z,101483.56
2022-12-18T23:22:15.751Z,101493.03
2022-12-18T23:24:42.645Z,101497.59
2022-12-18T23:27:12.303Z,101492.94
2022-12-18T23:29:40.421Z,101476.69
2022-12-18T23:32:08.125Z,101476.84
2022-12-18T23:34:35.033Z,101471.94
2022-12-18T23:37:03.613Z,101464.38
2022-12-18T23:39:30.699Z,101452.13
2022-12-18T23:42:01.546Z,101434.97
2022-12-18T23:44:28.576Z,101439.56
2022-12-18T23:46:55.767Z,101442.34
2022-12-18T23:49:23.272Z,101432.69
2022-12-18T23:51:50.429Z,101436.25
2022-12-18T23:54:17.395Z,101423.00
2022-12-18T23:56:49.326Z,101425.59
2022-12-18T23:59:16.258Z,101428.13
